Time;durP1;ratioP1;P1;durP2;ratioP2;P2;SDS_P1;SDS_P2;PMS_P1;PMS_P2;Temp;Humidity;BMP_temperature;BMP_pressure;BME280_temperature;BME280_humidity;BME280_pressure;Samples;Min_cycle;Max_cycle;Signal;HPM_P1;HPM_P2
2023/10/18 00:01:49;;;;;;;11.70;7.83;;;;;;;;;;6265301;22;20432;-90
2023/10/18 00:04:19;;;;;;;13.00;7.70;;;;;;;;;;6255065;22;20357;-90
2023/10/18 00:06:48;;;;;;;12.80;7.90;;;;;;;;;;6235855;22;20429;-89
2023/10/18 00:12:00;;;;;;;12.40;8.17;;;;;;;;;;6263254;22;20369;-91
2023/10/18 00:14:26;;;;;;;8.10;6.57;;;;;;;;;;6231510;22;20416;-90
2023/10/18 00:16:52;;;;;;;10.33;6.90;;;;;;;;;;6197321;23;20367;-90
2023/10/18 00:19:18;;;;;;;10.17;7.90;;;;;;;;;;6169854;23;20375;-89
2023/10/18 00:21:44;;;;;;;17.97;8.50;;;;;;;;;;6172204;23;20461;-90
2023/10/18 00:24:10;;;;;;;12.00;8.60;;;;;;;;;;6168213;23;20713;-89
2023/10/18 00:26:36;;;;;;;11.17;7.40;;;;;;;;;;6194562;23;20394;-89
2023/10/18 00:29:02;;;;;;;13.70;8.07;;;;;;;;;;6195508;23;20899;-89
2023/10/18 00:31:30;;;;;;;11.37;8.13;;;;;;;;;;6176118;23;20363;-89
2023/10/18 00:33:58;;;;;;;9.57;7.70;;;;;;;;;;6111015;23;20424;-87
2023/10/18 00:36:24;;;;;;;10.90;7.70;;;;;;;;;;6138213;23;20520;-88
2023/10/18 00:38:53;;;;;;;13.37;8.67;;;;;;;;;;6137422;23;20480;-88
2023/10/18 00:41:32;;;;;;;13.30;8.10;;;;;;;;;;6136059;23;20861;-89
2023/10/18 00:43:58;;;;;;;9.57;7.57;;;;;;;;;;6135580;23;20422;-89
2023/10/18 00:46:24;;;;;;;12.70;8.20;;;;;;;;;;6137569;23;20385;-89
2023/10/18 00:48:50;;;;;;;10.80;7.40;;;;;;;;;;6166748;23;20433;-89
2023/10/18 00:51:19;;;;;;;9.70;7.27;;;;;;;;;;6171044;23;20402;-88
2023/10/18 00:53:46;;;;;;;16.73;8.87;;;;;;;;;;6171159;23;20391;-88
2023/10/18 00:56:15;;;;;;;12.17;8.20;;;;;;;;;;6195846;23;20546;-88
2023/10/18 00:58:44;;;;;;;9.70;7.97;;;;;;;;;;6171580;23;20441;-88
2023/10/18 01:01:17;;;;;;;9.27;7.47;;;;;;;;;;6173971;23;20401;-88
2023/10/18 01:03:50;;;;;;;11.43;8.70;;;;;;;;;;6201152;23;20377;-89
2023/10/18 01:06:17;;;;;;;17.80;9.00;;;;;;;;;;6172858;23;20434;-89
2023/10/18 01:08:46;;;;;;;14.13;9.40;;;;;;;;;;6170863;23;20375;-89
2023/10/18 01:11:14;;;;;;;11.87;8.53;;;;;;;;;;6170941;23;20379;-90
2023/10/18 01:13:47;;;;;;;9.80;7.80;;;;;;;;;;6174878;23;20367;-89
2023/10/18 01:16:15;;;;;;;12.57;8.97;;;;;;;;;;6170182;23;20379;-89
2023/10/18 01:18:43;;;;;;;10.00;9.00;;;;;;;;;;6250928;22;20388;-89
2023/10/18 01:21:21;;;;;;;10.90;7.53;;;;;;;;;;6231316;22;20369;-89
2023/10/18 01:23:51;;;;;;;10.83;8.37;;;;;;;;;;6228384;22;20438;-88
2023/10/18 01:26:21;;;;;;;10.30;7.30;;;;;;;;;;6224870;22;20370;-89
2023/10/18 01:28:47;;;;;;;13.33;8.80;;;;;;;;;;6224301;23;20382;-89
2023/10/18 01:31:13;;;;;;;15.00;8.47;;;;;;;;;;6226276;23;20383;-90
2023/10/18 01:33:51;;;;;;;9.60;7.33;;;;;;;;;;6223311;23;20477;-90
2023/10/18 01:36:20;;;;;;;12.67;8.00;;;;;;;;;;6227238;23;20354;-89
2023/10/18 01:42:05;;;;;;;11.00;7.67;;;;;;;;;;6219670;23;20410;-89
2023/10/18 01:44:31;;;;;;;14.23;8.90;;;;;;;;;;6250453;23;20382;-89
2023/10/18 01:47:02;;;;;;;10.67;7.80;;;;;;;;;;6228589;22;20354;-89
2023/10/18 01:49:29;;;;;;;9.80;7.90;;;;;;;;;;6226582;22;20363;-90
2023/10/18 01:51:57;;;;;;;11.57;8.80;;;;;;;;;;6227939;23;20374;-90
2023/10/18 01:54:26;;;;;;;13.90;8.37;;;;;;;;;;6236329;22;20374;-89
2023/10/18 01:56:57;;;;;;;14.37;10.27;;;;;;;;;;6234659;22;20381;-89
2023/10/18 01:59:29;;;;;;;17.07;9.27;;;;;;;;;;6233000;22;20393;-91
2023/10/18 02:01:57;;;;;;;14.80;9.20;;;;;;;;;;6233558;22;20423;-90
2023/10/18 02:04:26;;;;;;;11.50;7.60;;;;;;;;;;6233826;22;20389;-90
2023/10/18 02:07:03;;;;;;;16.13;9.83;;;;;;;;;;6233401;22;20462;-89
2023/10/18 02:09:36;;;;;;;12.97;10.10;;;;;;;;;;6264301;22;20354;-89
2023/10/18 02:12:05;;;;;;;11.27;9.20;;;;;;;;;;6235589;22;20381;-89
2023/10/18 02:14:33;;;;;;;10.30;8.17;;;;;;;;;;6233735;22;20467;-89
2023/10/18 02:16:59;;;;;;;12.70;8.60;;;;;;;;;;6234522;22;20392;-90
2023/10/18 02:19:27;;;;;;;12.27;8.40;;;;;;;;;;6236141;22;20373;-89
2023/10/18 02:21:54;;;;;;;11.53;8.20;;;;;;;;;;6233546;22;20420;-89
2023/10/18 02:24:20;;;;;;;11.83;8.27;;;;;;;;;;6235330;22;20396;-90
2023/10/18 02:26:55;;;;;;;15.37;9.87;;;;;;;;;;6232283;22;20385;-88
2023/10/18 02:29:22;;;;;;;15.60;11.47;;;;;;;;;;6239670;22;20384;-90
2023/10/18 02:31:49;;;;;;;13.23;9.23;;;;;;;;;;6234289;22;20393;-88
2023/10/18 02:34:16;;;;;;;14.93;8.70;;;;;;;;;;6262654;22;20714;-90
2023/10/18 02:36:52;;;;;;;15.37;9.90;;;;;;;;;;6232269;22;20765;-90
2023/10/18 02:39:28;;;;;;;12.57;9.60;;;;;;;;;;6268410;22;20759;-89
2023/10/18 02:41:56;;;;;;;11.37;9.07;;;;;;;;;;6261614;22;20404;-90
2023/10/18 02:44:22;;;;;;;14.20;9.97;;;;;;;;;;6237473;22;20873;-91
2023/10/18 02:46:49;;;;;;;17.00;9.80;;;;;;;;;;6233822;22;20409;-90
2023/10/18 02:49:17;;;;;;;15.50;10.43;;;;;;;;;;6240330;22;20388;-90
2023/10/18 02:51:44;;;;;;;31.57;10.83;;;;;;;;;;6261134;22;20447;-90
2023/10/18 02:56:42;;;;;;;13.80;9.00;;;;;;;;;;6203135;23;20378;-90
2023/10/18 02:59:13;;;;;;;14.20;9.73;;;;;;;;;;6202197;23;20382;-89
2023/10/18 03:01:43;;;;;;;13.20;8.67;;;;;;;;;;6199071;23;20399;-90
2023/10/18 03:04:16;;;;;;;15.27;8.30;;;;;;;;;;6199846;23;20399;-90
2023/10/18 03:06:45;;;;;;;15.13;9.53;;;;;;;;;;6199960;23;20451;-89
2023/10/18 03:12:15;;;;;;;12.10;9.60;;;;;;;;;;6119024;23;20408;-90
2023/10/18 03:14:41;;;;;;;17.60;10.90;;;;;;;;;;6156342;23;20399;-91
2023/10/18 03:17:35;;;;;;;13.53;9.30;;;;;;;;;;6199063;23;20378;-89
2023/10/18 03:20:07;;;;;;;14.27;9.20;;;;;;;;;;6200973;23;20466;-90
2023/10/18 03:22:33;;;;;;;17.23;11.07;;;;;;;;;;6199065;23;20431;-90
2023/10/18 03:24:59;;;;;;;15.67;11.90;;;;;;;;;;6214454;22;20747;-90
2023/10/18 03:27:29;;;;;;;18.93;9.73;;;;;;;;;;6232887;22;20435;-90
2023/10/18 03:29:58;;;;;;;15.10;9.83;;;;;;;;;;6234986;22;20380;-90
2023/10/18 03:32:24;;;;;;;12.37;9.50;;;;;;;;;;6236011;22;20369;-90
2023/10/18 03:34:52;;;;;;;14.67;9.20;;;;;;;;;;6231347;22;20393;-90
2023/10/18 03:37:21;;;;;;;13.20;10.10;;;;;;;;;;6234567;22;20926;-90
2023/10/18 03:39:48;;;;;;;15.03;11.20;;;;;;;;;;6232297;22;20382;-90
2023/10/18 03:44:51;;;;;;;14.20;11.30;;;;;;;;;;6283175;22;20417;-90
2023/10/18 03:47:24;;;;;;;15.63;10.23;;;;;;;;;;6232742;22;20358;-91
2023/10/18 03:49:53;;;;;;;16.27;10.93;;;;;;;;;;6258208;22;20376;-90
2023/10/18 03:52:19;;;;;;;16.93;10.63;;;;;;;;;;6233295;22;20406;-90
2023/10/18 03:57:17;;;;;;;13.80;9.80;;;;;;;;;;6288338;22;20695;-90
2023/10/18 03:59:45;;;;;;;13.40;10.47;;;;;;;;;;6230548;22;20389;-90
2023/10/18 04:02:27;;;;;;;18.60;11.30;;;;;;;;;;6235724;22;20413;-90
2023/10/18 04:04:58;;;;;;;11.10;8.77;;;;;;;;;;6233543;22;20430;-90
2023/10/18 04:07:26;;;;;;;16.67;11.70;;;;;;;;;;6233987;22;20392;-90
2023/10/18 04:12:27;;;;;;;14.67;11.20;;;;;;;;;;6268019;22;20354;-91
2023/10/18 04:14:55;;;;;;;15.83;10.60;;;;;;;;;;6257198;22;20585;-90
2023/10/18 04:17:37;;;;;;;22.80;11.23;;;;;;;;;;6232106;22;20510;-90
2023/10/18 04:20:22;;;;;;;16.87;10.20;;;;;;;;;;6233392;22;20369;-90
2023/10/18 04:22:51;;;;;;;16.90;9.93;;;;;;;;;;6234963;22;20443;-91
2023/10/18 04:25:25;;;;;;;13.53;10.70;;;;;;;;;;6232464;22;20401;-90
2023/10/18 04:27:57;;;;;;;17.20;9.40;;;;;;;;;;6231354;22;20868;-90
2023/10/18 04:30:23;;;;;;;13.43;9.53;;;;;;;;;;6231480;22;20386;-89
2023/10/18 04:32:59;;;;;;;20.70;10.90;;;;;;;;;;6259573;22;20362;-91
2023/10/18 04:35:29;;;;;;;14.93;10.07;;;;;;;;;;6234856;22;20425;-90
2023/10/18 04:37:56;;;;;;;16.43;9.63;;;;;;;;;;6232167;22;21000;-90
2023/10/18 04:40:22;;;;;;;16.63;9.40;;;;;;;;;;6231827;22;20871;-91
2023/10/18 04:42:51;;;;;;;13.20;10.87;;;;;;;;;;6232440;22;20764;-90
2023/10/18 04:45:18;;;;;;;15.77;10.70;;;;;;;;;;6231500;22;20865;-90
2023/10/18 04:47:49;;;;;;;17.47;11.80;;;;;;;;;;6237372;22;20408;-90
2023/10/18 04:50:18;;;;;;;17.83;12.17;;;;;;;;;;6232695;22;20377;-90
2023/10/18 04:52:47;;;;;;;11.50;9.23;;;;;;;;;;6260927;22;20404;-90
2023/10/18 04:55:16;;;;;;;13.20;9.80;;;;;;;;;;6233358;22;20373;-90
2023/10/18 04:57:43;;;;;;;17.67;11.80;;;;;;;;;;6257201;22;20822;-90
2023/10/18 05:00:24;;;;;;;12.93;11.53;;;;;;;;;;6232737;22;20377;-91
2023/10/18 05:02:52;;;;;;;20.63;10.77;;;;;;;;;;6238510;22;20404;-90
2023/10/18 05:05:18;;;;;;;10.93;9.70;;;;;;;;;;6232895;22;20869;-90
2023/10/18 05:07:48;;;;;;;16.80;11.07;;;;;;;;;;6238560;22;20377;-90
2023/10/18 05:10:16;;;;;;;17.63;11.10;;;;;;;;;;6232418;22;20385;-90
2023/10/18 05:13:01;;;;;;;20.97;10.97;;;;;;;;;;6234103;22;20401;-89
2023/10/18 05:15:36;;;;;;;15.40;9.30;;;;;;;;;;6254922;22;20408;-89
2023/10/18 05:18:04;;;;;;;15.30;10.40;;;;;;;;;;6239057;22;20373;-89
2023/10/18 05:23:26;;;;;;;14.40;11.90;;;;;;;;;;6262683;22;20460;-93
2023/10/18 05:28:47;;;;;;;13.60;10.50;;;;;;;;;;6262820;22;20357;-87
2023/10/18 05:34:02;;;;;;;13.40;9.63;;;;;;;;;;6263160;22;20361;-92
2023/10/18 05:41:59;;;;;;;15.87;10.43;;;;;;;;;;6262417;22;20409;-92
2023/10/18 05:44:29;;;;;;;15.90;11.33;;;;;;;;;;6233185;22;20413;-92
2023/10/18 05:46:55;;;;;;;15.17;9.70;;;;;;;;;;6233996;22;20382;-93
2023/10/18 05:49:23;;;;;;;18.33;11.67;;;;;;;;;;6232271;22;20699;-91
2023/10/18 05:52:15;;;;;;;18.40;11.47;;;;;;;;;;6241122;22;20381;-90
2023/10/18 05:54:38;;;;;;;15.23;11.70;;;;;;;;;;6268322;22;20769;-91
2023/10/18 05:57:08;;;;;;;18.03;12.13;;;;;;;;;;6235366;22;20713;-93
2023/10/18 05:59:52;;;;;;;19.83;12.83;;;;;;;;;;6237389;22;20389;-93
2023/10/18 06:02:25;;;;;;;14.47;10.83;;;;;;;;;;6262458;22;20451;-90
2023/10/18 06:04:51;;;;;;;16.27;10.97;;;;;;;;;;6233412;22;20493;-86
2023/10/18 06:07:22;;;;;;;24.73;9.90;;;;;;;;;;6235418;22;20431;-89
2023/10/18 06:09:58;;;;;;;14.53;10.80;;;;;;;;;;6231952;22;20443;-89
2023/10/18 06:12:27;;;;;;;17.27;11.07;;;;;;;;;;6237682;22;20387;-90
2023/10/18 06:14:53;;;;;;;12.27;10.70;;;;;;;;;;6231819;22;20393;-87
2023/10/18 06:17:22;;;;;;;15.83;10.23;;;;;;;;;;6233469;22;20393;-89
2023/10/18 06:19:52;;;;;;;16.33;11.70;;;;;;;;;;6229537;22;20385;-87
2023/10/18 06:25:03;;;;;;;15.20;11.97;;;;;;;;;;6259577;22;20392;-87
2023/10/18 06:27:38;;;;;;;18.50;11.80;;;;;;;;;;6229890;22;20376;-88
2023/10/18 06:30:05;;;;;;;13.77;10.67;;;;;;;;;;6233228;22;20353;-88
2023/10/18 06:32:33;;;;;;;16.30;12.23;;;;;;;;;;6232467;22;20369;-87
2023/10/18 06:35:08;;;;;;;15.90;12.40;;;;;;;;;;6229164;22;20467;-88
2023/10/18 06:37:41;;;;;;;17.20;12.17;;;;;;;;;;6232435;22;20369;-88
2023/10/18 06:40:21;;;;;;;15.07;10.13;;;;;;;;;;6229753;22;20366;-88
2023/10/18 06:42:47;;;;;;;20.57;13.57;;;;;;;;;;6233631;22;20472;-88
2023/10/18 06:45:17;;;;;;;15.87;12.20;;;;;;;;;;6258005;22;20377;-87
2023/10/18 06:47:44;;;;;;;15.70;12.20;;;;;;;;;;6237396;22;20472;-87
2023/10/18 06:50:11;;;;;;;19.60;11.00;;;;;;;;;;6232850;22;20723;-87
2023/10/18 06:52:52;;;;;;;15.77;12.00;;;;;;;;;;6234057;22;20397;-88
2023/10/18 06:58:13;;;;;;;24.73;11.70;;;;;;;;;;6258737;22;20384;-88
2023/10/18 07:00:43;;;;;;;19.07;12.50;;;;;;;;;;6262771;22;20349;-87
2023/10/18 07:03:24;;;;;;;17.63;11.30;;;;;;;;;;6232100;22;20412;-87
2023/10/18 07:05:52;;;;;;;15.30;10.97;;;;;;;;;;6239782;22;20357;-87
2023/10/18 07:08:23;;;;;;;15.67;11.50;;;;;;;;;;6233521;22;20396;-87
2023/10/18 07:10:55;;;;;;;18.47;11.57;;;;;;;;;;6236729;22;20374;-87
2023/10/18 07:13:33;;;;;;;15.07;10.77;;;;;;;;;;6232789;22;20844;-87
2023/10/18 07:16:06;;;;;;;14.50;11.20;;;;;;;;;;6264004;22;20345;-86
2023/10/18 07:18:36;;;;;;;16.47;10.70;;;;;;;;;;6232181;22;20400;-87
2023/10/18 07:21:09;;;;;;;13.53;9.73;;;;;;;;;;6234607;22;20397;-88
2023/10/18 07:23:39;;;;;;;13.73;11.17;;;;;;;;;;6232385;22;20888;-88
2023/10/18 07:26:07;;;;;;;18.27;13.00;;;;;;;;;;6239555;22;20381;-87
2023/10/18 07:28:35;;;;;;;15.97;12.63;;;;;;;;;;6234484;22;20761;-87
2023/10/18 07:31:08;;;;;;;15.10;11.40;;;;;;;;;;6234506;22;20729;-86
2023/10/18 07:33:40;;;;;;;17.00;9.90;;;;;;;;;;6261023;22;20870;-87
2023/10/18 07:36:07;;;;;;;18.30;10.97;;;;;;;;;;6234375;22;20368;-87
2023/10/18 07:38:33;;;;;;;12.70;10.67;;;;;;;;;;6234674;22;20431;-87
2023/10/18 07:40:59;;;;;;;18.70;11.70;;;;;;;;;;6232534;22;20833;-88
2023/10/18 07:43:26;;;;;;;15.43;12.23;;;;;;;;;;6234512;22;20421;-87
2023/10/18 07:45:53;;;;;;;15.03;11.63;;;;;;;;;;6257572;22;20899;-88
2023/10/18 07:48:19;;;;;;;14.90;10.80;;;;;;;;;;6235432;22;20869;-88
2023/10/18 07:50:51;;;;;;;14.53;10.17;;;;;;;;;;6231456;22;20373;-88
2023/10/18 07:53:20;;;;;;;13.90;10.90;;;;;;;;;;6199100;23;20504;-88
2023/10/18 07:55:48;;;;;;;14.10;10.67;;;;;;;;;;6170031;23;20383;-88
2023/10/18 07:58:26;;;;;;;15.30;11.37;;;;;;;;;;6202260;23;20438;-88
2023/10/18 08:03:31;;;;;;;22.87;13.47;;;;;;;;;;6204249;23;20422;-88
2023/10/18 08:05:57;;;;;;;14.73;11.50;;;;;;;;;;6140165;23;20380;-88
2023/10/18 08:08:24;;;;;;;16.60;10.97;;;;;;;;;;6141905;23;20373;-89
2023/10/18 08:10:53;;;;;;;17.47;11.07;;;;;;;;;;6139587;23;20384;-88
2023/10/18 08:13:25;;;;;;;12.77;11.33;;;;;;;;;;6143451;23;20369;-88
2023/10/18 08:15:56;;;;;;;18.50;10.83;;;;;;;;;;6140865;23;20361;-88
2023/10/18 08:18:44;;;;;;;17.47;12.90;;;;;;;;;;6145466;23;20361;-88
2023/10/18 08:21:25;;;;;;;17.00;10.93;;;;;;;;;;6169024;23;20387;-88
2023/10/18 08:24:07;;;;;;;17.63;11.73;;;;;;;;;;6167205;23;20384;-93
2023/10/18 08:26:46;;;;;;;17.10;12.37;;;;;;;;;;6203913;23;21141;-93
2023/10/18 08:29:13;;;;;;;20.73;11.00;;;;;;;;;;6209810;23;20382;-92
2023/10/18 08:31:39;;;;;;;16.67;11.00;;;;;;;;;;6203020;23;20379;-93
2023/10/18 08:34:06;;;;;;;14.70;11.83;;;;;;;;;;6205396;23;20686;-93
2023/10/18 08:36:32;;;;;;;14.00;11.80;;;;;;;;;;6224346;22;20913;-92
2023/10/18 08:38:59;;;;;;;13.03;10.27;;;;;;;;;;6239757;22;20456;-93
2023/10/18 08:41:27;;;;;;;14.87;10.33;;;;;;;;;;6239768;22;20757;-92
2023/10/18 08:43:53;;;;;;;18.03;11.00;;;;;;;;;;6241435;22;20385;-93
2023/10/18 08:46:27;;;;;;;16.13;11.80;;;;;;;;;;6263100;22;20373;-90
2023/10/18 08:48:54;;;;;;;14.27;10.57;;;;;;;;;;6240493;22;20361;-90
2023/10/18 08:51:23;;;;;;;11.73;10.37;;;;;;;;;;6235699;22;20377;-91
2023/10/18 08:53:50;;;;;;;15.93;11.30;;;;;;;;;;6202324;23;20378;-90
2023/10/18 08:56:24;;;;;;;15.37;9.30;;;;;;;;;;6173003;23;20419;-90
2023/10/18 08:58:56;;;;;;;14.80;10.23;;;;;;;;;;6181004;23;20446;-90
2023/10/18 09:01:24;;;;;;;10.40;8.97;;;;;;;;;;6198528;23;20351;-90
2023/10/18 09:03:50;;;;;;;13.03;9.10;;;;;;;;;;6177143;23;20481;-90
2023/10/18 09:06:22;;;;;;;10.67;9.27;;;;;;;;;;6169446;23;20447;-90
2023/10/18 09:09:00;;;;;;;11.00;9.37;;;;;;;;;;6173851;23;20386;-90
2023/10/18 09:11:27;;;;;;;17.13;9.30;;;;;;;;;;6169537;23;20396;-90
2023/10/18 09:14:10;;;;;;;13.00;9.27;;;;;;;;;;6170130;23;20368;-89
2023/10/18 09:16:40;;;;;;;13.43;8.90;;;;;;;;;;6170960;23;20376;-90
2023/10/18 09:19:10;;;;;;;13.23;9.70;;;;;;;;;;6175794;23;20372;-90
2023/10/18 09:21:36;;;;;;;14.73;9.10;;;;;;;;;;6167961;23;20431;-90
2023/10/18 09:24:06;;;;;;;11.43;8.47;;;;;;;;;;6176919;23;20442;-89
2023/10/18 09:26:40;;;;;;;10.13;8.60;;;;;;;;;;6229560;23;20375;-90
2023/10/18 09:29:08;;;;;;;13.07;9.10;;;;;;;;;;6197075;23;20831;-90
2023/10/18 09:31:34;;;;;;;8.60;7.70;;;;;;;;;;6203663;22;21035;-90
2023/10/18 09:34:07;;;;;;;14.90;8.60;;;;;;;;;;6222235;23;20371;-89
2023/10/18 09:36:38;;;;;;;12.17;9.17;;;;;;;;;;6209882;22;20383;-89
2023/10/18 09:39:09;;;;;;;11.77;8.87;;;;;;;;;;6230400;22;20652;-87
2023/10/18 09:41:37;;;;;;;13.03;9.90;;;;;;;;;;6233044;22;20423;-87
2023/10/18 09:44:03;;;;;;;12.83;9.70;;;;;;;;;;6230899;22;20431;-88
2023/10/18 09:46:29;;;;;;;13.20;9.90;;;;;;;;;;6231355;22;20912;-89
2023/10/18 09:48:57;;;;;;;15.53;8.80;;;;;;;;;;6231268;22;20883;-88
2023/10/18 09:51:24;;;;;;;21.03;10.73;;;;;;;;;;6233060;22;20400;-88
2023/10/18 09:53:50;;;;;;;13.23;10.00;;;;;;;;;;6231620;22;20377;-88
2023/10/18 09:56:24;;;;;;;13.50;9.87;;;;;;;;;;6233670;22;20764;-88
2023/10/18 09:58:51;;;;;;;12.70;10.17;;;;;;;;;;6254705;22;20404;-88
2023/10/18 10:01:26;;;;;;;16.33;14.73;;;;;;;;;;6235577;22;20393;-88
2023/10/18 10:03:58;;;;;;;14.47;10.70;;;;;;;;;;6230663;22;20499;-88
2023/10/18 10:06:24;;;;;;;12.23;10.03;;;;;;;;;;6232413;22;20370;-91
2023/10/18 10:09:13;;;;;;;18.20;11.23;;;;;;;;;;6232093;22;20392;-90
2023/10/18 10:11:45;;;;;;;15.57;9.40;;;;;;;;;;6239218;22;20452;-91
2023/10/18 10:14:15;;;;;;;12.20;10.13;;;;;;;;;;6234422;22;20381;-91
2023/10/18 10:16:45;;;;;;;12.40;9.23;;;;;;;;;;6237021;22;20381;-90
2023/10/18 10:19:11;;;;;;;14.07;9.50;;;;;;;;;;6232106;22;20451;-91
2023/10/18 10:21:37;;;;;;;16.33;9.93;;;;;;;;;;6238030;22;20385;-91
2023/10/18 10:24:29;;;;;;;12.30;10.17;;;;;;;;;;6236393;22;20426;-91
2023/10/18 10:26:52;;;;;;;11.80;9.87;;;;;;;;;;6265137;22;20479;-91
2023/10/18 10:31:57;;;;;;;13.40;9.50;;;;;;;;;;6271044;22;20392;-91
2023/10/18 10:34:26;;;;;;;13.40;9.70;;;;;;;;;;6232919;22;20428;-91
2023/10/18 10:37:11;;;;;;;16.13;10.20;;;;;;;;;;6238735;22;20400;-91
2023/10/18 10:39:49;;;;;;;13.00;9.37;;;;;;;;;;6234788;22;20452;-91
2023/10/18 10:42:41;;;;;;;10.43;8.97;;;;;;;;;;6238714;22;20497;-91
2023/10/18 10:45:35;;;;;;;11.27;9.20;;;;;;;;;;6239006;22;20399;-92
2023/10/18 10:50:45;;;;;;;10.30;7.90;;;;;;;;;;6289080;22;20478;-92
2023/10/18 10:53:12;;;;;;;9.67;7.57;;;;;;;;;;6211850;22;20380;-91
2023/10/18 10:55:38;;;;;;;7.93;6.80;;;;;;;;;;6264452;22;20368;-91
2023/10/18 10:58:15;;;;;;;11.60;8.50;;;;;;;;;;6236923;22;20393;-93
2023/10/18 11:01:13;;;;;;;12.23;7.97;;;;;;;;;;6264371;22;20350;-90
2023/10/18 11:04:10;;;;;;;11.00;7.37;;;;;;;;;;6237315;22;20756;-92
2023/10/18 11:06:34;;;;;;;11.40;7.77;;;;;;;;;;6269978;22;20439;-90
2023/10/18 11:09:02;;;;;;;12.60;7.80;;;;;;;;;;6261084;22;20423;-92
2023/10/18 11:11:34;;;;;;;10.03;8.07;;;;;;;;;;6268184;22;20401;-91
2023/10/18 11:14:00;;;;;;;9.70;7.30;;;;;;;;;;6187608;22;20413;-90
2023/10/18 11:16:29;;;;;;;10.20;7.47;;;;;;;;;;6239990;22;20408;-90
2023/10/18 11:18:55;;;;;;;8.80;7.80;;;;;;;;;;6213020;22;20456;-92
2023/10/18 11:21:24;;;;;;;8.57;7.63;;;;;;;;;;6236827;22;20382;-89
2023/10/18 11:24:11;;;;;;;9.93;7.80;;;;;;;;;;6234207;22;21013;-90
2023/10/18 11:26:45;;;;;;;10.67;7.93;;;;;;;;;;6245867;22;20393;-91
2023/10/18 11:29:15;;;;;;;8.70;6.37;;;;;;;;;;6245739;22;20407;-92
2023/10/18 11:32:17;;;;;;;8.53;6.93;;;;;;;;;;6249960;22;20397;-93
2023/10/18 11:35:59;;;;;;;9.50;6.93;;;;;;;;;;6278089;22;20372;-92
2023/10/18 11:38:00;;;;;;;9.43;6.20;;;;;;;;;;6284086;22;20385;-92
2023/10/18 11:40:33;;;;;;;11.10;7.03;;;;;;;;;;6191352;23;20383;-93
2023/10/18 11:43:08;;;;;;;7.73;6.23;;;;;;;;;;6176571;23;20426;-93
2023/10/18 11:45:38;;;;;;;8.10;6.27;;;;;;;;;;6172449;23;20467;-91
2023/10/18 11:48:09;;;;;;;7.13;5.60;;;;;;;;;;6175432;23;20365;-92
2023/10/18 11:50:39;;;;;;;9.93;6.70;;;;;;;;;;6178134;23;20372;-92
2023/10/18 11:53:09;;;;;;;10.23;7.53;;;;;;;;;;6169580;23;20368;-92
2023/10/18 11:55:37;;;;;;;10.13;8.40;;;;;;;;;;6176781;23;20376;-92
2023/10/18 11:58:17;;;;;;;9.97;7.50;;;;;;;;;;6195252;23;20380;-92
2023/10/18 12:00:47;;;;;;;11.60;7.70;;;;;;;;;;6170828;23;20391;-89
2023/10/18 12:03:13;;;;;;;10.90;8.10;;;;;;;;;;6167516;23;20408;-90
2023/10/18 12:05:43;;;;;;;9.07;6.40;;;;;;;;;;6172164;23;20392;-89
2023/10/18 12:08:13;;;;;;;10.90;6.70;;;;;;;;;;6191823;23;20408;-90
2023/10/18 12:10:39;;;;;;;7.47;5.80;;;;;;;;;;6179134;23;20514;-90
2023/10/18 12:13:12;;;;;;;11.30;7.17;;;;;;;;;;6225527;23;20799;-89
2023/10/18 12:15:38;;;;;;;10.20;6.83;;;;;;;;;;6237274;22;20377;-90
2023/10/18 12:18:05;;;;;;;10.27;7.47;;;;;;;;;;6234978;22;20690;-89
2023/10/18 12:20:43;;;;;;;8.10;6.20;;;;;;;;;;6238608;22;20393;-90
2023/10/18 12:23:13;;;;;;;9.87;7.67;;;;;;;;;;6237238;22;20428;-89
2023/10/18 12:25:42;;;;;;;10.40;6.60;;;;;;;;;;6237894;22;20941;-90
2023/10/18 12:28:15;;;;;;;9.13;6.80;;;;;;;;;;6261846;22;20377;-90
2023/10/18 12:30:51;;;;;;;8.80;6.10;;;;;;;;;;6261180;22;20370;-91
2023/10/18 12:33:33;;;;;;;8.20;6.60;;;;;;;;;;6268522;22;20439;-90
2023/10/18 12:36:07;;;;;;;9.23;6.43;;;;;;;;;;6237373;22;20739;-90
2023/10/18 12:38:35;;;;;;;9.10;6.80;;;;;;;;;;6243765;22;20369;-90
2023/10/18 12:41:18;;;;;;;9.90;7.30;;;;;;;;;;6236339;22;20393;-90
2023/10/18 12:43:45;;;;;;;11.27;7.27;;;;;;;;;;6239386;22;20428;-90
2023/10/18 12:46:15;;;;;;;7.97;7.17;;;;;;;;;;6235369;22;20440;-90
2023/10/18 12:48:44;;;;;;;8.93;6.70;;;;;;;;;;6237470;22;20377;-90
2023/10/18 12:51:14;;;;;;;8.93;7.33;;;;;;;;;;6237793;22;20448;-92
2023/10/18 12:53:43;;;;;;;10.50;6.77;;;;;;;;;;6238333;22;20392;-92
2023/10/18 12:58:55;;;;;;;8.10;6.27;;;;;;;;;;6267356;22;20375;-92
2023/10/18 13:01:43;;;;;;;9.50;5.80;;;;;;;;;;6236837;22;20372;-92
2023/10/18 13:04:17;;;;;;;7.20;6.50;;;;;;;;;;6260272;22;21022;-92
2023/10/18 13:06:44;;;;;;;7.67;6.03;;;;;;;;;;6238805;22;20415;-91
2023/10/18 13:12:16;;;;;;;10.90;6.77;;;;;;;;;;6204253;23;20367;-93
2023/10/18 13:14:48;;;;;;;8.13;5.57;;;;;;;;;;6224281;23;20395;-93
2023/10/18 13:17:16;;;;;;;10.03;7.20;;;;;;;;;;6182465;23;20394;-94
2023/10/18 13:19:44;;;;;;;9.77;6.40;;;;;;;;;;6116983;23;20421;-93
2023/10/18 13:22:17;;;;;;;6.90;5.77;;;;;;;;;;6094343;23;20414;-94
2023/10/18 13:24:45;;;;;;;8.93;6.50;;;;;;;;;;6147737;23;20390;-93
2023/10/18 13:27:18;;;;;;;6.70;5.30;;;;;;;;;;6094912;23;20389;-93
2023/10/18 13:30:00;;;;;;;6.60;5.90;;;;;;;;;;6114944;23;20390;-92
2023/10/18 13:32:26;;;;;;;10.53;6.10;;;;;;;;;;6093797;23;20389;-92
2023/10/18 13:34:52;;;;;;;7.80;4.50;;;;;;;;;;6089296;23;20766;-92
2023/10/18 13:37:23;;;;;;;7.10;4.23;;;;;;;;;;6096528;23;20421;-92
2023/10/18 13:39:51;;;;;;;6.77;3.83;;;;;;;;;;6116294;23;20374;-92
2023/10/18 13:42:21;;;;;;;4.77;3.60;;;;;;;;;;6094839;23;20438;-92
2023/10/18 13:44:48;;;;;;;4.00;3.60;;;;;;;;;;6117715;23;20421;-93
2023/10/18 13:47:14;;;;;;;4.43;3.53;;;;;;;;;;6141343;23;20380;-92
2023/10/18 13:49:41;;;;;;;7.40;3.97;;;;;;;;;;6181699;22;20376;-92
2023/10/18 13:52:07;;;;;;;4.83;3.50;;;;;;;;;;6241511;22;20392;-93
2023/10/18 13:54:34;;;;;;;4.80;4.00;;;;;;;;;;6234622;22;20468;-92
2023/10/18 13:57:06;;;;;;;7.17;3.50;;;;;;;;;;6268323;22;20357;-93
2023/10/18 13:59:34;;;;;;;3.93;3.53;;;;;;;;;;6237869;22;20400;-92
2023/10/18 14:02:18;;;;;;;4.13;3.67;;;;;;;;;;6241614;22;20877;-92
2023/10/18 14:04:46;;;;;;;4.80;3.60;;;;;;;;;;6240174;22;20443;-92
2023/10/18 14:07:12;;;;;;;5.30;3.40;;;;;;;;;;6240898;22;20416;-92
2023/10/18 14:09:38;;;;;;;5.43;4.00;;;;;;;;;;6235121;22;20460;-92
2023/10/18 14:12:04;;;;;;;5.33;3.60;;;;;;;;;;6237478;22;20373;-92
2023/10/18 14:14:31;;;;;;;5.10;3.60;;;;;;;;;;6233652;22;20799;-93
2023/10/18 14:17:18;;;;;;;4.10;3.33;;;;;;;;;;6215041;22;20377;-92
2023/10/18 14:19:46;;;;;;;5.97;4.50;;;;;;;;;;6223368;22;20369;-91
2023/10/18 14:22:24;;;;;;;5.93;4.47;;;;;;;;;;6232924;22;20444;-91
2023/10/18 14:24:53;;;;;;;7.00;4.50;;;;;;;;;;6290047;22;20361;-90
2023/10/18 14:27:20;;;;;;;6.80;4.20;;;;;;;;;;6232779;22;20733;-90
2023/10/18 14:29:46;;;;;;;4.97;3.83;;;;;;;;;;6211257;22;20373;-91
2023/10/18 14:32:21;;;;;;;6.67;4.07;;;;;;;;;;6235791;22;20456;-91
2023/10/18 14:34:51;;;;;;;4.80;4.40;;;;;;;;;;6260478;22;20368;-92
2023/10/18 14:37:23;;;;;;;8.53;3.63;;;;;;;;;;6235971;22;20385;-91
2023/10/18 14:39:49;;;;;;;6.03;4.30;;;;;;;;;;6263165;22;20452;-92
2023/10/18 14:42:22;;;;;;;8.40;5.00;;;;;;;;;;6235684;22;20436;-92
2023/10/18 14:44:48;;;;;;;9.10;5.43;;;;;;;;;;6211269;22;20428;-91
2023/10/18 14:47:14;;;;;;;9.17;5.70;;;;;;;;;;6238595;22;20765;-92
2023/10/18 14:49:40;;;;;;;8.83;5.20;;;;;;;;;;6242902;22;20394;-94
2023/10/18 14:52:13;;;;;;;6.03;4.93;;;;;;;;;;6237420;22;20377;-92
2023/10/18 14:54:41;;;;;;;7.20;5.90;;;;;;;;;;6241784;22;20389;-93
2023/10/18 14:57:07;;;;;;;9.97;5.20;;;;;;;;;;6236840;22;20408;-92
2023/10/18 14:59:37;;;;;;;11.53;5.53;;;;;;;;;;6238638;22;20385;-92
2023/10/18 15:02:03;;;;;;;9.90;6.10;;;;;;;;;;6234699;22;20424;-92
2023/10/18 15:04:31;;;;;;;5.90;5.00;;;;;;;;;;6234846;22;20369;-93
2023/10/18 15:06:57;;;;;;;8.00;6.87;;;;;;;;;;6234943;22;20882;-92
2023/10/18 15:09:25;;;;;;;6.60;5.60;;;;;;;;;;6239961;22;20404;-93
2023/10/18 15:11:51;;;;;;;8.57;5.93;;;;;;;;;;6183274;22;20393;-93
2023/10/18 15:14:19;;;;;;;7.73;6.40;;;;;;;;;;6236750;22;20389;-92
2023/10/18 15:16:45;;;;;;;8.80;7.87;;;;;;;;;;6240151;22;20405;-92
2023/10/18 15:19:15;;;;;;;10.70;7.00;;;;;;;;;;6233955;22;20416;-93
2023/10/18 15:21:47;;;;;;;10.70;5.87;;;;;;;;;;6267388;22;20427;-92
2023/10/18 15:24:14;;;;;;;7.40;6.00;;;;;;;;;;6235248;22;20358;-93
2023/10/18 15:26:49;;;;;;;7.60;6.60;;;;;;;;;;6238389;22;20409;-92
2023/10/18 15:29:18;;;;;;;6.87;5.43;;;;;;;;;;6237053;22;20385;-92
2023/10/18 15:31:45;;;;;;;7.50;5.90;;;;;;;;;;6240685;22;20415;-93
2023/10/18 15:34:13;;;;;;;8.70;6.37;;;;;;;;;;6243951;22;20382;-92
2023/10/18 15:36:41;;;;;;;7.03;6.33;;;;;;;;;;6246946;22;20381;-92
2023/10/18 15:39:13;;;;;;;6.97;6.30;;;;;;;;;;6244185;22;20388;-93
2023/10/18 15:41:48;;;;;;;7.13;5.80;;;;;;;;;;6247504;22;20552;-93